High Priority — A8NZ7 — position and weather

sailwx.info

Track history (hours):
 
Tides and Currents Weather Stations Pressure Air Temp Water Temp Dewpoint Dewpoint Depression Visibility Wind Speed Wind Dir Waves Ship Positions

High Priority

Last reported at 2014-Nov-18 17:04 UTC. Time now 2014-Nov-22 02:00 UTC.
Position N 29°22' W 094°53'.

Length 180 m; draft 7 m.

Type: Tanker. MMSI: 636013591.

Date/timePositionNaut miles runAvg speedWind from/ knotsBaromVisibWave heightAir tempDewpointWater temp
2014-Nov-18 17:04N 29°22' W 094°53'1 1.3
2014-Nov-18 16:33N 29°23' W 094°53'  
2014-Nov-09 07:31N 39°26' W 073°53'1212.1
2014-Nov-09 06:33N 39°37' W 073°53'1212.0
2014-Nov-09 05:33N 39°49' W 073°52'1312.1
2014-Nov-09 04:26N 40°03' W 073°51'910.6
2014-Nov-09 03:33N 40°12' W 073°50'10 9.6
2014-Nov-09 02:33N 40°22' W 073°48'9 8.7
2014-Nov-09 01:33N 40°29' W 073°54'10 9.6
2014-Nov-09 00:34N 40°36' W 074°03'1 1.4
2014-Nov-08 23:34N 40°37' W 074°03'0 0.1
2014-Nov-08 22:34N 40°37' W 074°03'0 0.1
2014-Nov-08 21:34N 40°37' W 074°03'0 0.1
2014-Nov-08 20:34N 40°37' W 074°03'2 1.7
2014-Nov-08 19:33N 40°36' W 074°02'7 6.8
2014-Nov-08 18:33N 40°29' W 074°05'8 7.5
2014-Nov-08 17:28N 40°31' W 074°15'  
Track history (hours):
 
Tides and Currents Weather Stations Pressure Air Temp Water Temp Dewpoint Dewpoint Depression Visibility Wind Speed Wind Dir Waves Ship Positions

High Priority

Last reported at 2014-Nov-18 17:04 UTC. Time now 2014-Nov-22 02:00 UTC.
Position N 29°22' W 094°53'.

Length 180 m; draft 7 m.

Type: Tanker. MMSI: 636013591.

Date/timePositionNaut miles runAvg speedWind from/ knotsBaromVisibWave heightAir tempDewpointWater temp
2014-Nov-18 17:04N 29°22' W 094°53'1 1.3
2014-Nov-18 16:33N 29°23' W 094°53'  
2014-Nov-09 07:31N 39°26' W 073°53'1212.1
2014-Nov-09 06:33N 39°37' W 073°53'1212.0
2014-Nov-09 05:33N 39°49' W 073°52'1312.1
2014-Nov-09 04:26N 40°03' W 073°51'910.6
2014-Nov-09 03:33N 40°12' W 073°50'10 9.6
2014-Nov-09 02:33N 40°22' W 073°48'9 8.7
2014-Nov-09 01:33N 40°29' W 073°54'10 9.6
2014-Nov-09 00:34N 40°36' W 074°03'1 1.4
2014-Nov-08 23:34N 40°37' W 074°03'0 0.1
2014-Nov-08 22:34N 40°37' W 074°03'0 0.1
2014-Nov-08 21:34N 40°37' W 074°03'0 0.1
2014-Nov-08 20:34N 40°37' W 074°03'2 1.7
2014-Nov-08 19:33N 40°36' W 074°02'7 6.8
2014-Nov-08 18:33N 40°29' W 074°05'8 7.5
2014-Nov-08 17:28N 40°31' W 074°15'  

Dump ship's entire track history